Time;durP1;ratioP1;P1;durP2;ratioP2;P2;SDS_P1;SDS_P2;PMS_P1;PMS_P2;Temp;Humidity;BMP_temperature;BMP_pressure;BME280_temperature;BME280_humidity;BME280_pressure;Samples;Min_cycle;Max_cycle;Signal;HPM_P1;HPM_P2
2023/02/11 00:01:24;;;;;;;5.90;5.45;;;0.70;94.10;;;;;;5005560;28;20310;-76
2023/02/11 00:03:51;;;;;;;6.18;5.70;;;0.70;94.00;;;;;;5022355;28;20306;-74
2023/02/11 00:06:19;;;;;;;5.95;5.45;;;0.70;94.00;;;;;;5025754;28;20310;-74
2023/02/11 00:08:46;;;;;;;5.15;4.75;;;0.70;94.10;;;;;;5025918;28;20624;-73
2023/02/11 00:11:16;;;;;;;6.10;5.50;;;0.60;94.00;;;;;;5022572;28;20302;-73
2023/02/11 00:13:44;;;;;;;5.82;5.40;;;0.60;94.00;;;;;;5022914;28;20346;-73
2023/02/11 00:16:13;;;;;;;6.20;5.70;;;0.60;94.00;;;;;;5025244;28;20306;-74
2023/02/11 00:18:40;;;;;;;6.55;6.00;;;0.60;93.90;;;;;;5028186;28;20295;-73
2023/02/11 00:21:08;;;;;;;6.43;5.90;;;0.50;93.90;;;;;;5022395;28;20243;-74
2023/02/11 00:23:36;;;;;;;6.75;5.97;;;0.50;94.00;;;;;;5028178;28;20255;-74
2023/02/11 00:26:03;;;;;;;6.40;5.80;;;0.50;94.10;;;;;;5028690;28;20322;-73
2023/02/11 00:28:32;;;;;;;6.53;5.95;;;0.40;94.30;;;;;;5025392;28;20282;-74
2023/02/11 00:31:01;;;;;;;6.57;5.95;;;0.40;94.50;;;;;;5027468;28;20302;-73
2023/02/11 00:33:28;;;;;;;7.03;5.90;;;0.30;94.40;;;;;;5024088;28;20242;-73
2023/02/11 00:35:55;;;;;;;7.20;6.55;;;0.40;94.50;;;;;;5026021;28;20251;-73
2023/02/11 00:38:22;;;;;;;6.57;6.07;;;0.30;94.50;;;;;;5026040;28;20204;-73
2023/02/11 00:40:49;;;;;;;6.78;6.20;;;0.30;94.60;;;;;;5027223;28;20310;-73
2023/02/11 00:43:16;;;;;;;5.82;5.40;;;0.30;94.60;;;;;;5029167;28;20658;-74
2023/02/11 00:45:45;;;;;;;5.63;5.13;;;0.30;94.50;;;;;;5031519;28;20310;-74
2023/02/11 00:48:12;;;;;;;5.75;5.35;;;0.30;94.40;;;;;;5038363;28;20227;-73
2023/02/11 00:50:39;;;;;;;6.30;5.80;;;0.30;94.40;;;;;;5030991;28;20220;-73
2023/02/11 00:53:07;;;;;;;6.40;5.90;;;0.40;94.60;;;;;;5037010;28;20570;-74
2023/02/11 00:55:34;;;;;;;6.85;6.28;;;0.40;94.70;;;;;;5036236;28;20220;-74
2023/02/11 00:58:01;;;;;;;7.05;6.45;;;0.40;94.70;;;;;;5033050;28;20290;-74
2023/02/11 01:00:28;;;;;;;6.63;6.03;;;0.40;94.60;;;;;;5036458;28;20294;-74
2023/02/11 01:02:57;;;;;;;6.90;6.10;;;0.40;94.60;;;;;;5028598;28;20215;-74
2023/02/11 01:05:24;;;;;;;5.50;5.10;;;0.40;94.60;;;;;;5035135;28;20314;-74
2023/02/11 01:07:51;;;;;;;6.10;5.50;;;0.30;94.60;;;;;;5036495;28;20642;-74
2023/02/11 01:10:18;;;;;;;5.70;5.30;;;0.30;94.70;;;;;;5037135;28;20254;-74
2023/02/11 01:12:45;;;;;;;6.05;5.55;;;0.20;94.70;;;;;;5033118;28;20287;-74
2023/02/11 01:15:15;;;;;;;6.38;5.88;;;0.10;94.80;;;;;;5030927;28;20318;-74
2023/02/11 01:17:42;;;;;;;6.38;5.88;;;0.10;94.80;;;;;;5034679;28;20306;-74
2023/02/11 01:20:15;;;;;;;5.97;5.47;;;0.10;94.90;;;;;;5031217;28;20251;-74
2023/02/11 01:22:42;;;;;;;7.15;6.55;;;0.10;95.00;;;;;;5033719;28;20286;-74
2023/02/11 01:25:09;;;;;;;6.47;5.90;;;0.00;95.10;;;;;;5035019;28;20243;-74
2023/02/11 01:27:37;;;;;;;6.80;6.20;;;0.00;95.20;;;;;;5030122;28;20287;-73
2023/02/11 01:30:07;;;;;;;7.00;6.50;;;0.00;95.30;;;;;;5030757;28;20758;-73
2023/02/11 01:32:35;;;;;;;6.05;5.57;;;0.10;95.40;;;;;;5032858;28;20282;-73
2023/02/11 01:35:03;;;;;;;6.35;5.85;;;0.10;95.40;;;;;;5037100;28;20247;-73
2023/02/11 01:37:32;;;;;;;6.32;5.82;;;0.10;95.20;;;;;;5036582;28;20195;-74
2023/02/11 01:40:01;;;;;;;6.20;5.65;;;0.10;95.20;;;;;;5032721;28;20302;-73
2023/02/11 01:42:28;;;;;;;6.53;5.90;;;0.10;95.20;;;;;;5033794;28;20279;-73
2023/02/11 01:44:58;;;;;;;6.15;5.65;;;0.10;95.40;;;;;;5037479;28;20224;-72
2023/02/11 01:47:25;;;;;;;7.65;6.85;;;0.10;95.50;;;;;;5030818;28;20295;-72
2023/02/11 01:49:56;;;;;;;5.70;5.20;;;0.00;95.70;;;;;;5037539;28;20265;-72
2023/02/11 01:52:27;;;;;;;6.70;6.20;;;0.10;95.80;;;;;;5033229;28;20223;-73
2023/02/11 01:57:49;;;;;;;6.88;6.30;;;0.10;95.50;;;;;;5036830;28;20211;-73
2023/02/11 02:00:20;;;;;;;6.63;6.03;;;0.00;95.40;;;;;;5033920;28;20299;-72
2023/02/11 02:02:54;;;;;;;7.00;6.38;;;0.00;95.40;;;;;;5038073;28;20274;-73
2023/02/11 02:05:28;;;;;;;7.00;6.30;;;0.00;95.60;;;;;;5031870;28;20311;-74
2023/02/11 02:08:02;;;;;;;6.97;6.38;;;0.00;95.80;;;;;;5033787;28;20235;-74
2023/02/11 02:10:34;;;;;;;6.75;6.20;;;-0.10;95.80;;;;;;5028578;28;20296;-74
2023/02/11 02:13:01;;;;;;;6.55;5.95;;;0.00;95.80;;;;;;5036892;28;20274;-73
2023/02/11 02:15:32;;;;;;;6.47;5.97;;;-0.10;95.80;;;;;;5027112;28;20346;-74
2023/02/11 02:18:09;;;;;;;6.40;5.90;;;-0.10;95.80;;;;;;5033923;28;20227;-73
2023/02/11 02:21:18;;;;;;;6.53;5.93;;;-0.10;95.70;;;;;;5034120;28;20306;-74
2023/02/11 02:24:15;;;;;;;6.60;6.10;;;-0.10;95.80;;;;;;5019064;28;20258;-73
2023/02/11 02:27:30;;;;;;;6.75;6.18;;;-0.10;95.90;;;;;;5010873;28;20314;-73
2023/02/11 02:30:34;;;;;;;6.47;5.97;;;-0.10;95.90;;;;;;5035154;28;20235;-73
2023/02/11 02:33:22;;;;;;;6.68;6.18;;;-0.10;96.00;;;;;;5034294;28;20199;-72
2023/02/11 02:35:58;;;;;;;6.40;5.82;;;-0.20;96.10;;;;;;5031543;28;20263;-74
2023/02/11 02:38:30;;;;;;;7.38;6.75;;;-0.10;96.00;;;;;;5035843;28;20226;-74
2023/02/11 02:41:01;;;;;;;6.82;6.22;;;-0.10;95.90;;;;;;5038173;28;20302;-74
2023/02/11 02:43:30;;;;;;;6.68;6.18;;;-0.10;96.00;;;;;;5029890;28;20303;-73
2023/02/11 02:46:11;;;;;;;6.40;5.90;;;-0.20;96.10;;;;;;5032914;28;20254;-73
2023/02/11 02:48:39;;;;;;;6.57;6.07;;;-0.20;96.00;;;;;;5036601;28;20192;-73
2023/02/11 02:51:40;;;;;;;7.15;6.45;;;-0.20;96.00;;;;;;5032901;28;20239;-73
2023/02/11 02:54:31;;;;;;;6.18;5.68;;;-0.10;95.90;;;;;;4989553;28;20192;-73
2023/02/11 02:57:10;;;;;;;7.07;6.47;;;-0.20;95.90;;;;;;5028013;28;20295;-74
2023/02/11 02:59:51;;;;;;;6.45;5.63;;;-0.20;95.90;;;;;;5032491;28;20314;-74
2023/02/11 03:02:24;;;;;;;6.40;5.90;;;-0.20;96.00;;;;;;5026223;28;20320;-72
2023/02/11 03:05:01;;;;;;;6.70;6.20;;;-0.20;96.10;;;;;;5020003;28;20801;-74
2023/02/11 03:07:36;;;;;;;6.57;6.05;;;-0.20;96.30;;;;;;5031813;28;20226;-74
2023/02/11 03:10:09;;;;;;;7.00;6.32;;;-0.30;96.50;;;;;;5031732;28;20254;-74
2023/02/11 03:12:37;;;;;;;6.47;5.97;;;-0.30;96.60;;;;;;5031202;28;20302;-74
2023/02/11 03:15:06;;;;;;;6.82;6.30;;;-0.30;96.60;;;;;;5031331;28;20307;-74
2023/02/11 03:17:42;;;;;;;6.13;5.72;;;-0.40;96.50;;;;;;5029432;28;20196;-72
2023/02/11 03:20:15;;;;;;;6.85;6.35;;;-0.40;96.50;;;;;;5033449;28;20302;-74
2023/02/11 03:22:48;;;;;;;5.88;5.47;;;-0.40;96.40;;;;;;5027382;28;20200;-75
2023/02/11 03:25:15;;;;;;;5.40;5.00;;;-0.40;96.40;;;;;;5033427;28;20298;-73
2023/02/11 03:27:47;;;;;;;6.32;5.82;;;-0.40;96.40;;;;;;5029754;28;20288;-74
2023/02/11 03:30:19;;;;;;;6.65;6.03;;;-0.40;96.40;;;;;;5029232;28;20315;-74
2023/02/11 03:32:52;;;;;;;6.88;6.32;;;-0.40;96.50;;;;;;5028018;28;20282;-74
2023/02/11 03:35:26;;;;;;;6.15;5.75;;;-0.40;96.70;;;;;;5030078;28;20310;-74
2023/02/11 03:37:57;;;;;;;6.93;6.32;;;-0.40;96.80;;;;;;5036487;28;20253;-74
2023/02/11 03:40:27;;;;;;;6.18;5.60;;;-0.40;97.00;;;;;;5026461;28;20653;-72
2023/02/11 03:42:58;;;;;;;6.07;5.57;;;-0.50;97.00;;;;;;5031108;28;20199;-73
2023/02/11 03:45:27;;;;;;;5.53;5.13;;;-0.50;96.80;;;;;;5032288;28;20325;-73
2023/02/11 03:48:00;;;;;;;6.35;5.82;;;-0.50;96.80;;;;;;5033970;28;20722;-74
2023/02/11 03:50:32;;;;;;;5.78;5.38;;;-0.50;96.80;;;;;;5032499;28;20254;-74
2023/02/11 03:53:01;;;;;;;5.55;5.15;;;-0.50;96.90;;;;;;5033077;28;20230;-74
2023/02/11 03:55:30;;;;;;;6.35;5.85;;;-0.50;97.00;;;;;;5031768;28;20293;-72
2023/02/11 03:57:57;;;;;;;6.03;5.60;;;-0.50;97.10;;;;;;5035414;28;20717;-74
2023/02/11 04:00:31;;;;;;;5.60;5.20;;;-0.50;97.10;;;;;;5030464;28;20301;-73
2023/02/11 04:02:58;;;;;;;5.82;5.43;;;-0.50;97.10;;;;;;5032337;28;20226;-73
2023/02/11 04:05:25;;;;;;;5.55;5.15;;;-0.50;97.00;;;;;;5037275;28;20310;-71
2023/02/11 04:07:53;;;;;;;5.53;5.13;;;-0.50;97.00;;;;;;5038419;28;20295;-73
2023/02/11 04:10:20;;;;;;;5.93;5.53;;;-0.50;97.10;;;;;;5039438;28;20783;-73
2023/02/11 04:12:47;;;;;;;6.40;5.90;;;-0.50;97.10;;;;;;5038926;28;20803;-73
2023/02/11 04:15:14;;;;;;;5.70;5.30;;;-0.60;97.10;;;;;;5034313;28;20310;-73
2023/02/11 04:17:41;;;;;;;5.55;5.15;;;-0.60;97.00;;;;;;5036437;28;20286;-72
2023/02/11 04:20:10;;;;;;;6.30;5.80;;;-0.60;97.00;;;;;;5037797;28;20349;-72
2023/02/11 04:22:37;;;;;;;5.78;5.38;;;-0.60;97.00;;;;;;5036285;28;20275;-72
2023/02/11 04:25:07;;;;;;;5.90;5.40;;;-0.60;97.10;;;;;;5029317;28;20318;-72
2023/02/11 04:27:34;;;;;;;6.00;5.47;;;-0.60;97.20;;;;;;5038477;28;20299;-72
2023/02/11 04:30:01;;;;;;;6.13;5.63;;;-0.70;97.10;;;;;;5040567;28;20294;-72
2023/02/11 04:32:28;;;;;;;6.28;5.78;;;-0.70;97.30;;;;;;5029288;28;20294;-72
2023/02/11 04:34:55;;;;;;;6.55;6.05;;;-0.70;97.30;;;;;;5032101;28;20314;-74
2023/02/11 04:37:22;;;;;;;6.65;6.15;;;-0.70;97.40;;;;;;5032151;28;20301;-74
2023/02/11 04:39:49;;;;;;;5.75;4.90;;;-0.70;97.50;;;;;;5015408;28;20219;-74
2023/02/11 04:42:18;;;;;;;6.53;6.03;;;-0.70;97.70;;;;;;5036434;28;20234;-74
2023/02/11 04:44:45;;;;;;;7.03;6.30;;;-0.80;97.80;;;;;;5035288;28;20314;-74
2023/02/11 04:47:14;;;;;;;6.07;5.57;;;-0.80;97.70;;;;;;5036004;28;20687;-74
2023/02/11 04:49:41;;;;;;;6.82;6.00;;;-0.80;97.70;;;;;;5031720;28;20704;-73
2023/02/11 04:52:08;;;;;;;6.75;6.18;;;-0.80;97.90;;;;;;5029375;28;20230;-73
2023/02/11 04:54:35;;;;;;;6.80;6.20;;;-0.80;97.80;;;;;;5035929;28;20302;-74
2023/02/11 04:57:02;;;;;;;6.63;6.13;;;-0.80;97.90;;;;;;5034924;28;20195;-74
2023/02/11 04:59:31;;;;;;;6.35;5.95;;;-0.80;97.70;;;;;;5033822;28;20322;-74
2023/02/11 05:01:58;;;;;;;7.03;6.43;;;-0.70;97.60;;;;;;5030716;28;20202;-73
2023/02/11 05:04:25;;;;;;;6.55;5.95;;;-0.70;97.50;;;;;;5024056;28;20732;-73
2023/02/11 05:06:52;;;;;;;6.28;5.88;;;-0.70;97.60;;;;;;5036029;28;20238;-74
2023/02/11 05:09:19;;;;;;;6.35;5.85;;;-0.70;97.70;;;;;;5036736;28;20247;-74
2023/02/11 05:11:46;;;;;;;6.78;6.18;;;-0.70;97.70;;;;;;5034164;28;20211;-73
2023/02/11 05:14:13;;;;;;;5.75;5.30;;;-0.70;97.90;;;;;;5030860;28;20231;-75
2023/02/11 05:16:42;;;;;;;5.60;5.20;;;-0.70;97.80;;;;;;5033103;28;20278;-74
2023/02/11 05:19:09;;;;;;;6.03;5.53;;;-0.70;97.80;;;;;;5009888;28;20207;-73
2023/02/11 05:21:36;;;;;;;6.05;5.55;;;-0.70;97.80;;;;;;5026828;28;20299;-74
2023/02/11 05:24:03;;;;;;;5.40;5.00;;;-0.80;97.90;;;;;;5025996;28;20302;-74
2023/02/11 05:26:30;;;;;;;6.10;5.65;;;-0.70;98.00;;;;;;5027192;28;20327;-74
2023/02/11 05:28:57;;;;;;;5.13;4.82;;;-0.70;98.00;;;;;;5026712;28;20279;-73
2023/02/11 05:31:24;;;;;;;5.90;5.50;;;-0.70;98.00;;;;;;5030305;28;20628;-74
2023/02/11 05:33:53;;;;;;;6.07;5.68;;;-0.70;97.70;;;;;;5026774;28;20290;-73
2023/02/11 05:36:20;;;;;;;6.05;5.65;;;-0.80;97.80;;;;;;5023413;28;20346;-73
2023/02/11 05:38:47;;;;;;;5.45;5.05;;;-0.70;97.80;;;;;;5009457;28;20573;-73
2023/02/11 05:41:15;;;;;;;5.50;5.10;;;-0.70;97.80;;;;;;5026009;28;20305;-73
2023/02/11 05:43:42;;;;;;;4.85;4.55;;;-0.70;97.90;;;;;;5026911;28;20211;-72
2023/02/11 05:46:09;;;;;;;6.28;5.78;;;-0.70;97.90;;;;;;5024006;28;20224;-72
2023/02/11 05:48:36;;;;;;;5.55;5.15;;;-0.80;97.70;;;;;;5028220;28;20294;-73
2023/02/11 05:51:05;;;;;;;6.10;5.63;;;-0.80;97.80;;;;;;5027543;28;20229;-73
2023/02/11 05:53:32;;;;;;;6.20;5.70;;;-0.90;98.00;;;;;;5025054;28;20292;-73
2023/02/11 05:55:59;;;;;;;6.35;5.75;;;-0.90;98.00;;;;;;5026478;28;20775;-73
2023/02/11 05:58:26;;;;;;;5.95;5.55;;;-0.90;98.20;;;;;;5025934;28;20298;-72
2023/02/11 06:00:53;;;;;;;6.28;5.78;;;-0.90;98.30;;;;;;5021514;28;20671;-73
2023/02/11 06:03:20;;;;;;;6.05;5.65;;;-0.90;98.50;;;;;;4995456;28;20195;-72
2023/02/11 06:05:47;;;;;;;5.80;5.30;;;-0.90;98.60;;;;;;5021792;28;20315;-72
2023/02/11 06:08:16;;;;;;;6.03;5.43;;;-0.90;98.50;;;;;;5007959;28;20208;-73
2023/02/11 06:10:45;;;;;;;6.30;5.80;;;-0.90;98.70;;;;;;5028296;28;20302;-73
2023/02/11 06:13:12;;;;;;;5.63;5.22;;;-0.90;98.50;;;;;;5026071;28;20310;-72
2023/02/11 06:15:39;;;;;;;5.55;5.20;;;-0.90;98.40;;;;;;5021187;28;20314;-73
2023/02/11 06:18:07;;;;;;;5.32;5.03;;;-0.90;98.30;;;;;;5026157;28;22094;-73
2023/02/11 06:20:34;;;;;;;5.60;5.30;;;-0.90;98.60;;;;;;5026213;28;20532;-73
2023/02/11 06:23:01;;;;;;;5.70;5.20;;;-0.90;99.00;;;;;;5026639;28;20195;-73
2023/02/11 06:25:29;;;;;;;5.80;5.40;;;-0.90;98.50;;;;;;5019207;28;20323;-73
2023/02/11 06:27:56;;;;;;;5.22;4.88;;;-0.90;98.40;;;;;;5026641;28;20291;-73
2023/02/11 06:30:23;;;;;;;5.95;5.50;;;-0.80;98.30;;;;;;5023315;28;20341;-73
2023/02/11 06:32:51;;;;;;;5.45;5.05;;;-0.80;98.20;;;;;;5022069;28;20299;-73
2023/02/11 06:35:18;;;;;;;5.70;5.30;;;-0.80;98.20;;;;;;5028360;28;20284;-73
2023/02/11 06:37:46;;;;;;;6.25;5.75;;;-0.80;98.40;;;;;;5029585;28;20278;-73
2023/02/11 06:40:13;;;;;;;6.38;5.88;;;-0.80;98.30;;;;;;5031575;28;20723;-73
2023/02/11 06:42:42;;;;;;;6.50;6.00;;;-0.80;98.60;;;;;;5036776;28;20236;-73
2023/02/11 06:45:11;;;;;;;7.35;6.65;;;-0.80;98.60;;;;;;5038463;28;20306;-75
2023/02/11 06:47:39;;;;;;;7.05;6.55;;;-0.80;98.50;;;;;;5033232;28;20238;-74
2023/02/11 06:50:08;;;;;;;7.43;6.82;;;-0.90;98.40;;;;;;5040517;28;20318;-73
2023/02/11 06:52:35;;;;;;;7.45;6.85;;;-0.80;98.50;;;;;;5032687;28;20196;-73
2023/02/11 06:55:02;;;;;;;7.50;6.88;;;-0.70;98.50;;;;;;5036252;28;20751;-72
2023/02/11 06:57:30;;;;;;;7.35;6.65;;;-0.70;98.60;;;;;;5029920;28;20657;-72
2023/02/11 06:59:59;;;;;;;6.57;6.07;;;-0.70;98.60;;;;;;5035043;28;20217;-73
2023/02/11 07:02:26;;;;;;;7.25;6.65;;;-0.60;98.60;;;;;;5026275;28;20720;-75
2023/02/11 07:04:53;;;;;;;6.72;6.22;;;-0.60;98.60;;;;;;5033012;28;20306;-74
2023/02/11 07:07:20;;;;;;;7.10;6.38;;;-0.60;98.60;;;;;;5035861;28;20293;-74
2023/02/11 07:09:48;;;;;;;6.85;6.35;;;-0.50;98.60;;;;;;5034448;28;20309;-74
2023/02/11 07:12:14;;;;;;;7.13;6.43;;;-0.50;98.70;;;;;;5029686;28;20239;-73
2023/02/11 07:14:42;;;;;;;7.10;6.50;;;-0.40;98.60;;;;;;5034228;28;20302;-73
2023/02/11 07:17:10;;;;;;;7.68;6.97;;;-0.40;98.60;;;;;;5035290;28;20841;-73
2023/02/11 07:19:37;;;;;;;7.43;6.80;;;-0.30;98.50;;;;;;5030144;28;20243;-74
2023/02/11 07:22:04;;;;;;;8.38;7.57;;;-0.20;98.30;;;;;;5034568;28;20210;-73
2023/02/11 07:24:31;;;;;;;8.05;7.25;;;-0.20;98.20;;;;;;5036824;28;20254;-72
2023/02/11 07:26:58;;;;;;;7.03;6.43;;;-0.20;98.10;;;;;;5036269;28;20289;-73
2023/02/11 07:29:25;;;;;;;7.93;7.22;;;-0.20;98.30;;;;;;5031389;28;20207;-74
2023/02/11 07:31:52;;;;;;;7.07;6.47;;;-0.10;98.50;;;;;;5035632;28;20648;-73
2023/02/11 07:34:21;;;;;;;7.85;7.13;;;0.10;98.70;;;;;;5033805;28;20677;-74
2023/02/11 07:36:49;;;;;;;7.38;6.70;;;0.60;98.40;;;;;;5034392;28;20282;-74
2023/02/11 07:39:16;;;;;;;7.65;6.95;;;1.40;98.30;;;;;;5024119;28;20580;-73
2023/02/11 07:41:43;;;;;;;7.78;7.15;;;2.30;97.50;;;;;;5030558;28;20413;-73
2023/02/11 07:44:10;;;;;;;8.18;7.47;;;3.10;96.60;;;;;;5029571;28;20256;-73
2023/02/11 07:46:41;;;;;;;7.95;7.20;;;3.70;95.50;;;;;;5029467;28;20787;-72
2023/02/11 07:49:08;;;;;;;9.02;8.23;;;4.10;95.00;;;;;;5029615;28;20200;-76
2023/02/11 07:51:37;;;;;;;9.10;8.30;;;4.30;94.40;;;;;;5030799;28;20282;-74
2023/02/11 07:54:05;;;;;;;8.80;8.00;;;4.60;94.40;;;;;;5032520;28;20258;-73
2023/02/11 07:56:33;;;;;;;7.97;7.25;;;4.90;94.00;;;;;;5030066;28;20230;-73
2023/02/11 07:59:02;;;;;;;7.72;7.05;;;5.40;93.60;;;;;;5033315;28;20235;-74
2023/02/11 08:01:30;;;;;;;7.95;7.15;;;5.70;93.00;;;;;;5030997;28;20797;-72
2023/02/11 08:03:58;;;;;;;9.88;7.90;;;5.40;92.30;;;;;;5029456;28;20298;-74
2023/02/11 08:06:27;;;;;;;6.88;6.28;;;5.50;92.80;;;;;;5027454;28;20651;-74
2023/02/11 08:08:55;;;;;;;8.27;7.57;;;5.80;92.60;;;;;;5026153;28;20235;-73
2023/02/11 08:11:24;;;;;;;8.68;7.80;;;6.00;93.20;;;;;;5035824;28;20245;-74
2023/02/11 08:13:51;;;;;;;8.82;7.50;;;6.10;93.00;;;;;;5034491;28;20284;-73
2023/02/11 08:16:21;;;;;;;9.95;8.98;;;5.90;92.80;;;;;;5022703;28;20674;-72
2023/02/11 08:18:49;;;;;;;9.00;8.10;;;5.60;93.00;;;;;;5009269;28;20196;-73
2023/02/11 08:21:16;;;;;;;9.40;8.45;;;5.30;93.10;;;;;;5025047;28;20875;-73
2023/02/11 08:23:44;;;;;;;8.48;7.20;;;5.00;93.00;;;;;;5026525;28;20310;-73
2023/02/11 08:26:14;;;;;;;8.38;7.47;;;4.80;93.30;;;;;;5017290;28;20306;-72
2023/02/11 08:28:43;;;;;;;8.52;7.72;;;4.60;93.70;;;;;;5022806;28;20291;-73
2023/02/11 08:31:12;;;;;;;8.63;7.88;;;4.50;94.20;;;;;;5022452;28;20223;-72
2023/02/11 08:33:40;;;;;;;9.07;8.20;;;4.40;94.40;;;;;;5022149;28;20287;-74
2023/02/11 08:36:09;;;;;;;8.02;7.30;;;4.60;94.50;;;;;;5027565;28;20219;-74
2023/02/11 08:38:37;;;;;;;7.75;7.05;;;4.60;94.70;;;;;;5021631;28;20337;-74
2023/02/11 08:41:04;;;;;;;7.28;6.57;;;4.40;94.10;;;;;;5019465;28;20314;-74
2023/02/11 08:43:33;;;;;;;8.55;7.70;;;4.40;94.60;;;;;;5021029;28;20299;-73
2023/02/11 08:46:00;;;;;;;8.07;7.22;;;4.30;95.00;;;;;;5026004;28;20212;-75
2023/02/11 08:48:27;;;;;;;8.00;7.10;;;4.20;94.80;;;;;;5024120;28;20306;-75
2023/02/11 08:50:54;;;;;;;7.75;7.03;;;4.20;94.90;;;;;;5018059;28;20215;-73
2023/02/11 08:53:22;;;;;;;9.32;7.15;;;4.20;96.10;;;;;;5028236;28;20202;-74
2023/02/11 08:55:50;;;;;;;9.93;7.38;;;4.20;95.50;;;;;;5035456;28;20783;-74
2023/02/11 08:58:17;;;;;;;8.90;7.70;;;4.20;95.20;;;;;;5043053;28;20195;-74
2023/02/11 09:00:46;;;;;;;8.52;7.72;;;4.20;96.00;;;;;;5028472;28;20301;-73
2023/02/11 09:03:14;;;;;;;8.63;7.75;;;4.40;96.40;;;;;;5029937;28;20282;-75
2023/02/11 09:05:42;;;;;;;12.63;8.75;;;4.70;96.20;;;;;;5031309;28;20366;-75
2023/02/11 09:08:09;;;;;;;7.97;7.10;;;4.90;96.00;;;;;;5024488;28;20207;-75
2023/02/11 09:10:36;;;;;;;9.55;8.65;;;5.20;95.40;;;;;;5031256;28;21569;-77
2023/02/11 09:13:03;;;;;;;8.85;7.10;;;5.50;94.70;;;;;;5035935;28;20279;-75
2023/02/11 09:15:30;;;;;;;11.48;7.30;;;5.60;94.70;;;;;;5029425;28;20928;-75
2023/02/11 09:17:59;;;;;;;8.70;7.78;;;5.60;94.60;;;;;;5030627;28;20287;-74
2023/02/11 09:20:27;;;;;;;8.73;7.82;;;5.60;94.30;;;;;;5021869;28;20303;-74
2023/02/11 09:22:54;;;;;;;7.10;6.10;;;5.70;94.60;;;;;;5036782;28;20739;-73
2023/02/11 09:25:21;;;;;;;7.65;6.93;;;5.70;94.50;;;;;;5032920;28;20230;-75
2023/02/11 09:27:48;;;;;;;8.63;7.70;;;5.50;94.90;;;;;;5041885;28;20624;-73
2023/02/11 09:30:15;;;;;;;10.05;8.40;;;5.40;94.40;;;;;;5026494;28;20266;-75
2023/02/11 09:32:43;;;;;;;8.57;7.50;;;5.40;94.50;;;;;;5033300;28;20283;-74
2023/02/11 09:35:11;;;;;;;8.95;7.03;;;5.50;94.80;;;;;;5032170;28;20305;-75
2023/02/11 09:37:38;;;;;;;9.15;8.27;;;5.50;94.60;;;;;;5034116;28;20799;-72
2023/02/11 09:40:06;;;;;;;9.80;7.97;;;5.50;94.60;;;;;;5029939;28;20597;-74
2023/02/11 09:42:48;;;;;;;10.35;8.35;;;5.30;94.60;;;;;;5035187;28;20291;-73
2023/02/11 09:45:19;;;;;;;10.02;8.38;;;5.30;95.20;;;;;;5031943;28;20231;-74
2023/02/11 09:47:51;;;;;;;9.52;8.43;;;5.30;95.30;;;;;;5025801;28;20199;-72
2023/02/11 09:50:24;;;;;;;8.98;8.07;;;5.30;95.40;;;;;;5033718;28;20217;-74
2023/02/11 09:52:56;;;;;;;10.38;7.85;;;5.20;95.20;;;;;;5028014;28;20316;-74
2023/02/11 09:55:27;;;;;;;13.55;8.90;;;5.30;95.10;;;;;;5030973;28;20227;-72
2023/02/11 09:57:55;;;;;;;8.90;8.07;;;5.20;95.00;;;;;;5042698;28;20223;-73
2023/02/11 10:00:27;;;;;;;7.53;6.82;;;5.30;94.90;;;;;;5030335;28;20637;-74
2023/02/11 10:03:20;;;;;;;8.15;7.45;;;5.30;94.70;;;;;;5034571;28;20291;-74
2023/02/11 10:06:08;;;;;;;8.35;7.32;;;5.50;94.90;;;;;;5033108;28;20315;-74
2023/02/11 10:08:44;;;;;;;7.28;6.57;;;5.60;94.70;;;;;;5029621;28;20243;-74
2023/02/11 10:11:16;;;;;;;9.13;7.97;;;5.60;94.10;;;;;;5024759;28;20194;-72
2023/02/11 10:13:56;;;;;;;8.10;7.28;;;5.60;94.00;;;;;;5019332;28;20248;-75
2023/02/11 10:16:40;;;;;;;8.95;8.05;;;5.60;94.60;;;;;;5019394;28;20294;-74
2023/02/11 10:19:21;;;;;;;7.97;7.18;;;5.50;94.50;;;;;;5029155;28;20306;-75
2023/02/11 10:21:58;;;;;;;7.93;7.22;;;5.30;94.90;;;;;;5027692;28;20198;-75
2023/02/11 10:24:27;;;;;;;8.90;7.60;;;5.30;94.90;;;;;;5025669;28;20302;-75
2023/02/11 10:26:54;;;;;;;7.95;7.15;;;5.30;97.20;;;;;;5030329;28;20227;-76
2023/02/11 10:29:33;;;;;;;9.68;8.55;;;5.30;96.30;;;;;;5027659;28;20246;-77
2023/02/11 10:32:04;;;;;;;9.65;8.65;;;5.30;96.00;;;;;;5026410;28;20748;-77
2023/02/11 10:34:31;;;;;;;8.80;7.90;;;5.10;95.90;;;;;;5030295;28;20223;-76
2023/02/11 10:36:59;;;;;;;9.63;8.63;;;5.00;96.10;;;;;;5028418;28;20291;-75
2023/02/11 10:39:27;;;;;;;10.02;7.65;;;4.90;96.20;;;;;;5025507;28;20291;-75
2023/02/11 10:41:59;;;;;;;9.65;7.78;;;4.90;96.10;;;;;;5031821;28;20214;-75
2023/02/11 10:44:30;;;;;;;8.10;7.40;;;4.90;95.90;;;;;;5027322;28;20243;-75
2023/02/11 10:46:59;;;;;;;8.80;8.00;;;4.90;95.90;;;;;;5024374;28;20787;-74
2023/02/11 10:49:39;;;;;;;8.25;7.45;;;4.90;96.40;;;;;;5033371;28;20301;-74
2023/02/11 10:52:26;;;;;;;7.15;6.45;;;5.00;96.00;;;;;;5029345;28;21567;-75
2023/02/11 10:54:58;;;;;;;7.93;7.00;;;5.00;95.60;;;;;;5023410;28;20219;-74
2023/02/11 10:57:28;;;;;;;9.30;8.30;;;5.00;95.30;;;;;;5027708;28;20242;-74
2023/02/11 11:00:00;;;;;;;9.20;8.30;;;5.00;95.60;;;;;;5026819;28;20222;-74
2023/02/11 11:02:33;;;;;;;9.07;8.27;;;5.10;95.90;;;;;;5025714;28;20283;-75
2023/02/11 11:05:03;;;;;;;8.57;7.78;;;5.10;96.00;;;;;;5028359;28;20219;-74
2023/02/11 11:07:34;;;;;;;9.00;8.18;;;5.10;95.90;;;;;;5025963;28;20748;-74
2023/02/11 11:10:04;;;;;;;9.13;8.15;;;5.10;96.70;;;;;;5028497;28;20212;-74
2023/02/11 11:12:39;;;;;;;9.18;8.13;;;5.10;96.60;;;;;;5028266;28;20227;-74
2023/02/11 11:15:18;;;;;;;10.27;7.68;;;5.20;96.80;;;;;;5023880;28;20227;-76
2023/02/11 11:17:45;;;;;;;8.38;7.47;;;5.30;95.80;;;;;;5029391;28;20692;-76
2023/02/11 11:20:34;;;;;;;9.18;8.25;;;5.40;95.20;;;;;;5032788;28;20290;-78
2023/02/11 11:23:18;;;;;;;9.30;8.40;;;5.40;96.10;;;;;;5023896;28;20199;-76
2023/02/11 11:25:58;;;;;;;10.25;7.72;;;5.30;96.50;;;;;;5026715;28;20501;-75
2023/02/11 11:28:28;;;;;;;8.82;8.00;;;5.40;96.60;;;;;;5020459;28;20195;-75
2023/02/11 11:30:57;;;;;;;10.48;8.90;;;5.90;96.90;;;;;;5020380;28;20638;-75
2023/02/11 11:33:27;;;;;;;8.10;7.35;;;6.70;96.50;;;;;;5031453;28;20660;-75
2023/02/11 11:36:04;;;;;;;9.20;8.32;;;7.40;95.90;;;;;;5019306;28;20306;-74
2023/02/11 11:38:36;;;;;;;9.88;8.88;;;8.00;94.90;;;;;;5021236;28;20332;-74
2023/02/11 11:41:19;;;;;;;9.75;8.52;;;8.10;94.60;;;;;;5025722;28;20294;-74
2023/02/11 11:44:03;;;;;;;9.35;8.18;;;8.10;94.20;;;;;;5019645;28;20303;-74
2023/02/11 11:46:34;;;;;;;9.05;8.13;;;8.40;93.70;;;;;;5022943;28;20310;-74
2023/02/11 11:49:17;;;;;;;12.60;9.02;;;8.50;93.20;;;;;;5032011;28;20303;-73
2023/02/11 11:51:51;;;;;;;9.68;8.30;;;8.80;92.40;;;;;;5027153;28;20286;-73
2023/02/11 11:54:22;;;;;;;12.52;10.93;;;9.00;92.10;;;;;;5022633;28;20302;-73
2023/02/11 11:56:55;;;;;;;10.98;8.98;;;9.10;91.70;;;;;;5026607;28;20283;-73
2023/02/11 11:59:22;;;;;;;10.52;8.00;;;9.30;92.30;;;;;;5033378;28;20223;-72
2023/02/11 12:02:05;;;;;;;9.13;8.00;;;9.50;91.10;;;;;;5019122;28;20215;-74
2023/02/11 12:04:56;;;;;;;8.15;7.10;;;9.70;90.60;;;;;;5026146;28;20302;-71
2023/02/11 12:07:35;;;;;;;7.10;6.50;;;9.70;88.00;;;;;;5024773;28;20293;-73
2023/02/11 12:10:29;;;;;;;6.28;5.68;;;9.80;85.90;;;;;;5020038;28;20258;-73
2023/02/11 12:13:04;;;;;;;8.02;6.30;;;9.90;84.40;;;;;;5020229;28;20223;-73
2023/02/11 12:15:40;;;;;;;6.50;5.90;;;9.90;85.10;;;;;;5026973;28;20668;-74
2023/02/11 12:18:19;;;;;;;6.53;5.93;;;9.90;84.00;;;;;;5026559;28;20293;-77
2023/02/11 12:21:02;;;;;;;7.38;5.30;;;9.90;83.40;;;;;;5029040;28;20282;-73
2023/02/11 12:23:38;;;;;;;6.60;5.70;;;10.00;83.00;;;;;;5028978;28;20310;-73
2023/02/11 12:26:15;;;;;;;6.38;5.78;;;10.00;82.60;;;;;;5040750;28;21357;-74
2023/02/11 12:28:53;;;;;;;6.20;5.60;;;10.00;81.50;;;;;;5027492;28;20294;-73
2023/02/11 12:31:34;;;;;;;6.03;5.53;;;10.00;83.10;;;;;;5034414;28;20271;-74
2023/02/11 12:34:32;;;;;;;6.10;5.60;;;10.30;83.90;;;;;;5039315;28;20214;-73
2023/02/11 12:37:06;;;;;;;6.75;6.15;;;10.40;82.20;;;;;;5026944;28;20211;-73
2023/02/11 12:39:39;;;;;;;7.07;6.38;;;10.50;81.90;;;;;;5030070;28;20763;-74
2023/02/11 12:45:17;;;;;;;7.25;6.55;;;10.20;81.70;;;;;;5032651;28;20243;-74
2023/02/11 12:48:00;;;;;;;6.80;6.10;;;10.30;82.70;;;;;;5027943;28;20222;-74
2023/02/11 12:50:35;;;;;;;7.55;6.75;;;10.50;82.40;;;;;;5031225;28;20688;-74
2023/02/11 12:53:21;;;;;;;7.75;6.82;;;10.50;82.50;;;;;;5036262;28;20306;-73
2023/02/11 12:55:52;;;;;;;6.68;6.03;;;10.50;81.90;;;;;;5030847;28;20223;-73
2023/02/11 12:58:26;;;;;;;7.72;6.97;;;10.50;83.90;;;;;;5036385;28;20227;-73
2023/02/11 13:00:57;;;;;;;7.32;6.60;;;10.60;83.50;;;;;;5033958;28;20197;-72
2023/02/11 13:03:27;;;;;;;6.80;6.20;;;10.60;82.50;;;;;;5034984;28;20574;-73
2023/02/11 13:05:59;;;;;;;7.18;6.50;;;10.80;82.20;;;;;;5026224;28;20277;-73
2023/02/11 13:08:30;;;;;;;7.32;6.63;;;10.90;83.10;;;;;;5032762;28;20273;-71
2023/02/11 13:11:00;;;;;;;7.35;6.65;;;11.00;81.50;;;;;;5030344;28;20191;-74
2023/02/11 13:13:33;;;;;;;7.80;7.03;;;11.00;82.40;;;;;;5031540;28;20717;-73
2023/02/11 13:16:06;;;;;;;7.05;6.35;;;11.00;82.00;;;;;;5035444;28;20752;-73
2023/02/11 13:18:43;;;;;;;8.07;6.85;;;11.20;82.20;;;;;;5041531;28;20227;-74